Logo AVAMET
Benvolgut visitant, si us plau, ingressa Recuperar contrasenya
AVAMET paisatges

Requena Casa Cárcel

Dades diàries. Acumulats / Últims 30 dies disponibles

Data Temperatura (°C) Humitat rel. (%) Pressió rel. (hPa) Vent (km/h) Precipitació
Mínima Mitjana Màxima Amplitud
tèrmica
Mínima Mitjana Màxima Mínima Mitjana Màxima Predom. Mitjana Ràfega
màxima
Total
(mm)
Índex-n
Mínima Mitjana Màxima Mínima Mitjana Màxima n
0 a 1
P0 max
mm 5'
Dades mensuals acumulades fins l'últim dia disponible
06/2020 7,5 11,5 17,1 19,5 19,8 28,4 33,5 26,0  
Dades anuals acumulades fins l'últim dia disponible
2020 -5,3 6,1 17,1 12,5 4,0 19,1 33,5 38,8  
Últims 30 dies disponibles
30-06-2020 11,6     21,4     31,3 19,7
29-06-2020 14,2     23,8     33,5 19,3
28-06-2020 14,7     24,8     31,9 17,2
27-06-2020 10,4     21,7     33,0 22,6
26-06-2020 13,0     21,9     30,8 17,8
25-06-2020 14,4     22,6     30,8 16,4
24-06-2020 12,8     23,1     33,4 20,6
23-06-2020 11,7     21,4     31,1 19,4
22-06-2020 17,1     14,1     31,2 14,1
21-06-2020 10,6     22,0     33,4 22,8
20-06-2020 11,8     22,2     32,7 20,9
19-06-2020 15,8     21,7     27,7 11,9
18-06-2020 14,7     20,6     26,6 11,9
17-06-2020 10,1     18,8     27,5 17,4
16-06-2020 11,8     19,3     26,8 15,0
15-06-2020 7,5     18,0     28,5 21,0
14-06-2020 8,6     13,0     27,4 18,8
13-06-2020 8,5     16,6     24,7 16,2
12-06-2020 13,0     17,7     22,5 9,5
11-06-2020 9,5     18,0     26,5 17,0
10-06-2020 9,1     17,6     26,1 17,0
09-06-2020 9,5     16,7     23,9 14,4
08-06-2020 11,7     15,9     20,2 8,5
07-06-2020 11,9     19,1     26,4 14,5
06-06-2020 9,5     19,0     28,6 19,1
05-06-2020 8,3     17,8     27,3 19,0
04-06-2020 12,8     16,3     19,8 7,0
03-06-2020 9,3     19,4     29,5 20,2
02-06-2020 9,8     20,1     30,5 20,7
01-06-2020 10,5     19,6     28,8 18,3
Últims 13 mesos disponibles
06/2020 7,5 11,5 17,1 19,5 19,8 28,4 33,5 26,0
05/2020 4,4 9,7 14,7 17,1 13,9 24,5 31,2 26,8
04/2020 1,7 7,1 10,9 12,3 9,3 17,5 22,1 20,4
03/2020 -0,7 4,6 9,7 9,4 5,1 14,6 27,3 28,0
02/2020 -1,1 3,0 9,4 10,4 9,4 17,9 22,0 23,1
01/2020 -5,3 0,6 9,6 6,2 4,0 11,8 15,6 20,9
11/2019 -3,6 4,8 14,2 9,3 9,7 13,9 23,4 27,0
10/2019 0,5 8,0 15,2 15,3 9,0 22,6 29,5 29,0
09/2019 7,8 13,0 17,7 19,6 16,4 26,2 34,8 27,0
08/2019 10,0 14,2 19,7 23,1 21,5 32,1 38,2 28,2
07/2019 10,2 15,4 20,8 24,0 24,6 32,4 38,8 28,6
06/2019 3,8 9,8 17,8 18,9 20,9 28,3 36,6 32,8
05/2019 4,3 8,3 12,7 17,4 23,2 27,5 23,2
Tots els anys disponibles
Temperatura (°C)
Nota sobre les dades: s'avisa a l'usuari de la provisionalitat i no oficialitat d'aquestes dades
Logo AVAMET blanc
Web allotjada a Sollutia
Llicència de Creative CommonsLa web d'AVAMET i els seus continguts estan subjectes a una llicència de
Reconeixement - No Comercial - Compartir igual
Avís legal - Política de privacitat - Política de cookies
NOVES ESTACIONS: València - l'Olivereta (Soci), Xixona - Carrasqueta/Bugaia (Soci), l'Alcúdia de Crespins/Canals - la Muntanyeta (Soci), Utiel - est (Soci), Xàbia - Cansalades (Soci), Alginet (Soci), Quatretondeta (Ajuntament Soci) Enguera - Benali (Soci/ADENE), la Vall d'Alba - sud (Ajuntament Soci), El Fondó dels Frares (Estació pròpia d'AVAMET nº34) - - -